Sedov — UELO — position and weather

sailwx.info

Track history (hours):
 
Tides and Currents Weather Stations Pressure Air Temp Water Temp Dewpoint Dewpoint Depression Visibility Wind Speed Wind Dir Waves Ship Positions

Sedov (Russia)

Last reported at 2015-Nov-16 03:33 UTC. Time now 2016-Feb-12 22:28 UTC.
Position N 54°38' E 019°58'.
Warning: this ship's position is months out of date.

Length 118 m; draft 6.4 m.

Type: Sailing vessel. MMSI: 273510000.

Date/timePositionNaut miles runAvg speedWind from/ knotsBaromVisibWave heightAir tempDewpointWater temp
2015-Nov-16 03:33N 54°38' E 019°58'6 5.3
2015-Nov-16 02:31N 54°39' E 019°48'0 0.1
2015-Nov-16 01:31N 54°39' E 019°48'0 0.0
2015-Nov-16 00:31N 54°39' E 019°48'0 0.0
2015-Nov-15 23:31N 54°39' E 019°48'0 0.0
2015-Nov-15 22:25N 54°39' E 019°48'0 0.0
2015-Nov-15 20:22N 54°39' E 019°48'0 0.0
2015-Nov-15 19:16N 54°39' E 019°48'0 0.0
2015-Nov-15 17:28N 54°39' E 019°48'0 0.0
2015-Nov-15 16:25N 54°39' E 019°48'0 0.0
2015-Nov-15 15:31N 54°39' E 019°48'0 0.0
2015-Nov-15 14:31N 54°39' E 019°48'0 0.0
2015-Nov-15 13:28N 54°39' E 019°48'0 0.0
2015-Nov-15 12:28N 54°39' E 019°48'0 0.0
2015-Nov-15 11:31N 54°39' E 019°48'0 0.0
2015-Nov-15 09:04N 54°39' E 019°48'0 0.0
2015-Nov-15 08:31N 54°39' E 019°48'0 0.0
2015-Nov-15 07:31N 54°39' E 019°48'0 0.0
2015-Nov-15 06:31N 54°39' E 019°48'0 0.0
2015-Nov-15 05:31N 54°39' E 019°48'0 0.0
2015-Nov-15 04:31N 54°39' E 019°48'0 0.0
2015-Nov-15 03:31N 54°39' E 019°48'0 0.0
2015-Nov-15 02:31N 54°39' E 019°48'0 0.0
2015-Nov-15 01:31N 54°39' E 019°48'0 0.0
2015-Nov-15 00:31N 54°39' E 019°48'0 0.0
2015-Nov-14 23:25N 54°39' E 019°48'0 0.0
2015-Nov-14 22:31N 54°39' E 019°48'0 0.0
2015-Nov-14 21:28N 54°39' E 019°48'0 0.0
2015-Nov-14 20:28N 54°39' E 019°48'0 0.0
2015-Nov-14 19:04N 54°39' E 019°48'0 0.0
2015-Nov-14 18:25N 54°39' E 019°48'0 0.0
2015-Nov-14 17:31N 54°39' E 019°48'0 0.0
2015-Nov-14 16:28N 54°39' E 019°48'0 0.0
2015-Nov-14 15:25N 54°39' E 019°48'0 0.0
2015-Nov-14 14:31N 54°39' E 019°48'0 0.0
2015-Nov-14 13:28N 54°39' E 019°48'0 0.2
2015-Nov-14 12:25N 54°39' E 019°48'0 0.1
2015-Nov-14 11:25N 54°39' E 019°48'0 0.0
2015-Nov-14 10:28N 54°39' E 019°48'0 0.0
2015-Nov-14 09:25N 54°39' E 019°48'0 0.0
2015-Nov-14 08:31N 54°39' E 019°48'0 0.0
2015-Nov-14 07:28N 54°39' E 019°48'0 0.0
2015-Nov-14 06:31N 54°39' E 019°48'0 0.0
2015-Nov-14 05:31N 54°39' E 019°48'0 0.0
2015-Nov-14 04:28N 54°39' E 019°48'2 2.1
2015-Nov-14 03:19N 54°41' E 019°46'810.6
2015-Nov-14 02:33N 54°45' E 019°34'1010.0
2015-Nov-14 01:33N 54°48' E 019°17'10 9.8
2015-Nov-14 00:33N 54°51' E 019°01'10 9.9
2015-Nov-13 23:33N 54°54' E 018°45'1010.0
2015-Nov-13 22:33N 54°56' E 018°27'11 9.7
2015-Nov-13 21:29N 54°56' E 018°09'11210.3
2015-Nov-13 10:34N 54°38' E 014°57'19 9.1
2015-Nov-13 08:30N 54°36' E 014°25'8 7.9
2015-Nov-13 07:33N 54°38' E 014°13'8 8.0
2015-Nov-13 06:34N 54°41' E 014°00'7 7.0
2015-Nov-13 05:34N 54°47' E 013°53'8 7.7
2015-Nov-13 04:31N 54°52' E 013°42'7 7.6
2015-Nov-13 03:33N 54°56' E 013°32'8 7.8
2015-Nov-13 02:28N 55°02' E 013°20'8 8.3
2015-Nov-13 01:31N 55°06' E 013°09'8 8.5
2015-Nov-13 00:33N 55°12' E 012°58'9 8.7
2015-Nov-12 23:33N 55°16' E 012°45'6 6.4
2015-Nov-12 22:34N 55°21' E 012°38'8 7.7
2015-Nov-12 21:33N 55°29' E 012°41'9 8.8
2015-Nov-12 20:33N 55°38' E 012°42'9 8.9
2015-Nov-12 19:34N 55°46' E 012°42'8 8.2
2015-Nov-12 18:33N 55°54' E 012°38'9 8.9
2015-Nov-12 17:34N 56°03' E 012°38'1110.8
2015-Nov-12 16:33N 56°10' E 012°23'10 9.6
2015-Nov-12 15:34N 56°15' E 012°09'11 9.2
2015-Nov-12 14:25N 56°25' E 012°00'910.1
2015-Nov-12 13:34N 56°33' E 011°56'1110.6
2015-Nov-12 12:34N 56°43' E 011°52'1111.0
2015-Nov-12 11:31N 56°54' E 011°45'1010.5
2015-Nov-12 10:33N 57°04' E 011°39'1010.5
2015-Nov-12 09:33N 57°14' E 011°32'1110.6
2015-Nov-12 08:34N 57°24' E 011°27'1211.3
2015-Nov-12 07:30N 57°33' E 011°12'1111.6
2015-Nov-12 06:33N 57°40' E 010°57'8 8.5
2015-Nov-12 05:34N 57°46' E 010°46'1010.0
2015-Nov-12 04:34N 57°48' E 010°28'208 7.7
2015-Nov-11 01:29N 54°59' E 006°49'8 8.5
2015-Nov-11 00:32N 54°51' E 006°55'8 8.2
2015-Nov-10 23:31N 54°44' E 007°01'8 8.1
2015-Nov-10 22:33N 54°37' E 007°07'8 7.9
2015-Nov-10 21:33N 54°30' E 007°13'7 7.3
2015-Nov-10 20:34N 54°23' E 007°19'6 6.5
2015-Nov-10 19:34N 54°18' E 007°24'7 6.5
2015-Nov-10 18:33N 54°12' E 007°30'7 6.8
2015-Nov-10 17:34N 54°06' E 007°35'7 7.4
2015-Nov-10 16:33N 53°59' E 007°40'8 6.1
2015-Nov-10 15:10N 53°53' E 007°50'4 5.0
2015-Nov-10 14:27N 53°52' E 007°56'5 5.6
2015-Nov-10 13:33N 53°50' E 008°04'16 7.9
2015-Nov-10 11:33N 53°40' E 008°24'8 7.6
2015-Nov-10 10:33N 53°34' E 008°33'3 2.6
2015-Nov-10 09:33N 53°32' E 008°35'1 0.9
2015-Nov-10 08:31N 53°31' E 008°35'0 0.0
2015-Nov-10 07:31N 53°31' E 008°35'0 0.0
2015-Nov-10 06:31N 53°31' E 008°35'0 0.0
2015-Nov-10 05:25N 53°31' E 008°35'0 0.0
2015-Nov-10 04:31N 53°31' E 008°35'0 0.0
2015-Nov-10 03:31N 53°31' E 008°35'0 0.0
2015-Nov-10 02:31N 53°31' E 008°35'0 0.0
2015-Nov-10 01:31N 53°31' E 008°35'0 0.0
2015-Nov-09 23:28N 53°31' E 008°35'0 0.0
2015-Nov-09 22:28N 53°31' E 008°35'0 0.0
2015-Nov-09 21:31N 53°31' E 008°35'0 0.0
2015-Nov-09 20:25N 53°31' E 008°35'0 0.0
2015-Nov-09 19:31N 53°31' E 008°35'0 0.0
2015-Nov-09 18:31N 53°31' E 008°35'0 0.0
2015-Nov-09 17:22N 53°31' E 008°35'0 0.0
2015-Nov-09 16:31N 53°31' E 008°35'0 0.0
2015-Nov-09 15:31N 53°31' E 008°35'0 0.0
2015-Nov-09 14:31N 53°31' E 008°35'0 0.0
2015-Nov-09 13:31N 53°31' E 008°35'0 0.0
2015-Nov-09 12:31N 53°31' E 008°35'0 0.0
2015-Nov-09 11:31N 53°31' E 008°35'0 0.0
2015-Nov-09 10:28N 53°31' E 008°35'0 0.0
2015-Nov-09 09:28N 53°31' E 008°35'0 0.0
2015-Nov-09 08:31N 53°31' E 008°35'0 0.0
2015-Nov-09 07:25N 53°31' E 008°35'0 0.0
2015-Nov-09 06:28N 53°31' E 008°35'0 0.0
2015-Nov-09 05:25N 53°31' E 008°35'0 0.0
2015-Nov-09 04:22N 53°31' E 008°35'0 0.0
2015-Nov-09 03:25N 53°31' E 008°35'0 0.0
2015-Nov-09 02:31N 53°31' E 008°35'0 0.0
2015-Nov-09 01:31N 53°31' E 008°35'0 0.0
2015-Nov-09 00:19N 53°31' E 008°35'0 0.0
2015-Nov-08 23:28N 53°31' E 008°35'0 0.0
2015-Nov-08 22:31N 53°31' E 008°35'0 0.0
2015-Nov-08 21:31N 53°31' E 008°35'0 0.0
2015-Nov-08 20:28N 53°31' E 008°35'0 0.0
2015-Nov-08 19:31N 53°31' E 008°35'0 0.0
2015-Nov-08 18:31N 53°31' E 008°35'0 0.0
2015-Nov-08 17:31N 53°31' E 008°35'0 0.0
2015-Nov-08 16:28N 53°31' E 008°35'0 0.0
2015-Nov-08 15:31N 53°31' E 008°35'0 0.0
2015-Nov-08 14:31N 53°31' E 008°35'0 0.0
2015-Nov-08 13:31N 53°31' E 008°35'0 0.0
2015-Nov-08 12:31N 53°31' E 008°35'0 0.0
2015-Nov-08 11:32N 53°31' E 008°35'0 0.0
2015-Nov-08 10:32N 53°31' E 008°35'0 0.0
2015-Nov-08 09:32N 53°31' E 008°35'0 0.0
2015-Nov-08 08:29N 53°31' E 008°35'0 0.0
2015-Nov-08 07:31N 53°31' E 008°35'0 0.0
2015-Nov-08 06:31N 53°31' E 008°35'0 0.0
2015-Nov-08 05:29N 53°31' E 008°35'0 0.0
2015-Nov-08 04:33N 53°31' E 008°35'0 0.0
2015-Nov-08 03:33N 53°31' E 008°35'0 0.0
2015-Nov-08 02:33N 53°31' E 008°35'0 0.0
2015-Nov-08 01:30N 53°31' E 008°35'0 0.0
2015-Nov-08 00:33N 53°31' E 008°35'0 0.0
2015-Nov-07 23:30N 53°31' E 008°35'0 0.0
2015-Nov-07 22:30N 53°31' E 008°35'0 0.0
2015-Nov-07 21:32N 53°31' E 008°35'0 0.0
2015-Nov-07 20:29N 53°31' E 008°35'0 0.0
2015-Nov-07 19:29N 53°31' E 008°35'0 0.0
2015-Nov-07 18:24N 53°31' E 008°35'0 0.0
2015-Nov-07 17:29N 53°31' E 008°35'0 0.0
2015-Nov-07 16:33N 53°31' E 008°35'0 0.0
2015-Nov-07 15:33N 53°31' E 008°35'0 0.0
2015-Nov-07 14:33N 53°31' E 008°35'0 0.0
2015-Nov-07 13:33N 53°31' E 008°35'0 0.0
2015-Nov-07 12:33N 53°31' E 008°35'0 0.0
2015-Nov-07 11:25N 53°31' E 008°35'0 0.0
2015-Nov-07 10:32N 53°31' E 008°35'0 0.0
2015-Nov-07 09:32N 53°31' E 008°35'0 0.0
2015-Nov-07 08:32N 53°31' E 008°35'0 0.0
2015-Nov-07 07:32N 53°31' E 008°35'0 0.0
2015-Nov-07 06:32N 53°31' E 008°35'0 0.0
2015-Nov-07 05:31N 53°31' E 008°35'0 0.0
2015-Nov-07 04:31N 53°31' E 008°35'0 0.0
2015-Nov-07 03:31N 53°31' E 008°35'0 0.0
2015-Nov-07 02:31N 53°31' E 008°35'0 0.0
2015-Nov-07 01:33N 53°31' E 008°35'0 0.0
2015-Nov-07 00:33N 53°31' E 008°35'0 0.0
2015-Nov-06 23:33N 53°31' E 008°35'0 0.0
2015-Nov-06 22:30N 53°31' E 008°35'0 0.0
2015-Nov-06 21:33N 53°31' E 008°35'0 0.0
2015-Nov-06 20:33N 53°31' E 008°35'0 0.0
2015-Nov-06 19:32N 53°31' E 008°35'0 0.0
2015-Nov-06 18:32N 53°31' E 008°35'0 0.0
2015-Nov-06 17:32N 53°31' E 008°35'0 0.0
2015-Nov-06 16:32N 53°31' E 008°35'0 0.0
2015-Nov-06 15:32N 53°31' E 008°35'0 0.0
2015-Nov-06 14:31N 53°31' E 008°35'0 0.0
2015-Nov-06 13:34N 53°31' E 008°35'0 0.0
2015-Nov-06 12:31N 53°31' E 008°35'0 0.0
2015-Nov-06 11:33N 53°31' E 008°35'0 0.0
2015-Nov-06 10:31N 53°31' E 008°35'0 0.0
2015-Nov-06 09:33N 53°31' E 008°35'0 0.0
2015-Nov-06 08:30N 53°31' E 008°35'0 0.0
2015-Nov-06 07:30N 53°31' E 008°35'0 0.0
2015-Nov-06 06:27N 53°31' E 008°35'0 0.0
2015-Nov-06 05:32N 53°31' E 008°35'0 0.0
2015-Nov-06 04:32N 53°31' E 008°35'  
Track history (hours):
 
Tides and Currents Weather Stations Pressure Air Temp Water Temp Dewpoint Dewpoint Depression Visibility Wind Speed Wind Dir Waves Ship Positions

Sedov (Russia)

Last reported at 2015-Nov-16 03:33 UTC. Time now 2016-Feb-12 22:28 UTC.
Position N 54°38' E 019°58'.
Warning: this ship's position is months out of date.

Length 118 m; draft 6.4 m.

Type: Sailing vessel. MMSI: 273510000.

Date/timePositionNaut miles runAvg speedWind from/ knotsBaromVisibWave heightAir tempDewpointWater temp
2015-Nov-16 03:33N 54°38' E 019°58'6 5.3
2015-Nov-16 02:31N 54°39' E 019°48'0 0.1
2015-Nov-16 01:31N 54°39' E 019°48'0 0.0
2015-Nov-16 00:31N 54°39' E 019°48'0 0.0
2015-Nov-15 23:31N 54°39' E 019°48'0 0.0
2015-Nov-15 22:25N 54°39' E 019°48'0 0.0
2015-Nov-15 20:22N 54°39' E 019°48'0 0.0
2015-Nov-15 19:16N 54°39' E 019°48'0 0.0
2015-Nov-15 17:28N 54°39' E 019°48'0 0.0
2015-Nov-15 16:25N 54°39' E 019°48'0 0.0
2015-Nov-15 15:31N 54°39' E 019°48'0 0.0
2015-Nov-15 14:31N 54°39' E 019°48'0 0.0
2015-Nov-15 13:28N 54°39' E 019°48'0 0.0
2015-Nov-15 12:28N 54°39' E 019°48'0 0.0
2015-Nov-15 11:31N 54°39' E 019°48'0 0.0
2015-Nov-15 09:04N 54°39' E 019°48'0 0.0
2015-Nov-15 08:31N 54°39' E 019°48'0 0.0
2015-Nov-15 07:31N 54°39' E 019°48'0 0.0
2015-Nov-15 06:31N 54°39' E 019°48'0 0.0
2015-Nov-15 05:31N 54°39' E 019°48'0 0.0
2015-Nov-15 04:31N 54°39' E 019°48'0 0.0
2015-Nov-15 03:31N 54°39' E 019°48'0 0.0
2015-Nov-15 02:31N 54°39' E 019°48'0 0.0
2015-Nov-15 01:31N 54°39' E 019°48'0 0.0
2015-Nov-15 00:31N 54°39' E 019°48'0 0.0
2015-Nov-14 23:25N 54°39' E 019°48'0 0.0
2015-Nov-14 22:31N 54°39' E 019°48'0 0.0
2015-Nov-14 21:28N 54°39' E 019°48'0 0.0
2015-Nov-14 20:28N 54°39' E 019°48'0 0.0
2015-Nov-14 19:04N 54°39' E 019°48'0 0.0
2015-Nov-14 18:25N 54°39' E 019°48'0 0.0
2015-Nov-14 17:31N 54°39' E 019°48'0 0.0
2015-Nov-14 16:28N 54°39' E 019°48'0 0.0
2015-Nov-14 15:25N 54°39' E 019°48'0 0.0
2015-Nov-14 14:31N 54°39' E 019°48'0 0.0
2015-Nov-14 13:28N 54°39' E 019°48'0 0.2
2015-Nov-14 12:25N 54°39' E 019°48'0 0.1
2015-Nov-14 11:25N 54°39' E 019°48'0 0.0
2015-Nov-14 10:28N 54°39' E 019°48'0 0.0
2015-Nov-14 09:25N 54°39' E 019°48'0 0.0
2015-Nov-14 08:31N 54°39' E 019°48'0 0.0
2015-Nov-14 07:28N 54°39' E 019°48'0 0.0
2015-Nov-14 06:31N 54°39' E 019°48'0 0.0
2015-Nov-14 05:31N 54°39' E 019°48'0 0.0
2015-Nov-14 04:28N 54°39' E 019°48'2 2.1
2015-Nov-14 03:19N 54°41' E 019°46'810.6
2015-Nov-14 02:33N 54°45' E 019°34'1010.0
2015-Nov-14 01:33N 54°48' E 019°17'10 9.8
2015-Nov-14 00:33N 54°51' E 019°01'10 9.9
2015-Nov-13 23:33N 54°54' E 018°45'1010.0
2015-Nov-13 22:33N 54°56' E 018°27'11 9.7
2015-Nov-13 21:29N 54°56' E 018°09'11210.3
2015-Nov-13 10:34N 54°38' E 014°57'19 9.1
2015-Nov-13 08:30N 54°36' E 014°25'8 7.9
2015-Nov-13 07:33N 54°38' E 014°13'8 8.0
2015-Nov-13 06:34N 54°41' E 014°00'7 7.0
2015-Nov-13 05:34N 54°47' E 013°53'8 7.7
2015-Nov-13 04:31N 54°52' E 013°42'7 7.6
2015-Nov-13 03:33N 54°56' E 013°32'8 7.8
2015-Nov-13 02:28N 55°02' E 013°20'8 8.3
2015-Nov-13 01:31N 55°06' E 013°09'8 8.5
2015-Nov-13 00:33N 55°12' E 012°58'9 8.7
2015-Nov-12 23:33N 55°16' E 012°45'6 6.4
2015-Nov-12 22:34N 55°21' E 012°38'8 7.7
2015-Nov-12 21:33N 55°29' E 012°41'9 8.8
2015-Nov-12 20:33N 55°38' E 012°42'9 8.9
2015-Nov-12 19:34N 55°46' E 012°42'8 8.2
2015-Nov-12 18:33N 55°54' E 012°38'9 8.9
2015-Nov-12 17:34N 56°03' E 012°38'1110.8
2015-Nov-12 16:33N 56°10' E 012°23'10 9.6
2015-Nov-12 15:34N 56°15' E 012°09'11 9.2
2015-Nov-12 14:25N 56°25' E 012°00'910.1
2015-Nov-12 13:34N 56°33' E 011°56'1110.6
2015-Nov-12 12:34N 56°43' E 011°52'1111.0
2015-Nov-12 11:31N 56°54' E 011°45'1010.5
2015-Nov-12 10:33N 57°04' E 011°39'1010.5
2015-Nov-12 09:33N 57°14' E 011°32'1110.6
2015-Nov-12 08:34N 57°24' E 011°27'1211.3
2015-Nov-12 07:30N 57°33' E 011°12'1111.6
2015-Nov-12 06:33N 57°40' E 010°57'8 8.5
2015-Nov-12 05:34N 57°46' E 010°46'1010.0
2015-Nov-12 04:34N 57°48' E 010°28'208 7.7
2015-Nov-11 01:29N 54°59' E 006°49'8 8.5
2015-Nov-11 00:32N 54°51' E 006°55'8 8.2
2015-Nov-10 23:31N 54°44' E 007°01'8 8.1
2015-Nov-10 22:33N 54°37' E 007°07'8 7.9
2015-Nov-10 21:33N 54°30' E 007°13'7 7.3
2015-Nov-10 20:34N 54°23' E 007°19'6 6.5
2015-Nov-10 19:34N 54°18' E 007°24'7 6.5
2015-Nov-10 18:33N 54°12' E 007°30'7 6.8
2015-Nov-10 17:34N 54°06' E 007°35'7 7.4
2015-Nov-10 16:33N 53°59' E 007°40'8 6.1
2015-Nov-10 15:10N 53°53' E 007°50'4 5.0
2015-Nov-10 14:27N 53°52' E 007°56'5 5.6
2015-Nov-10 13:33N 53°50' E 008°04'16 7.9
2015-Nov-10 11:33N 53°40' E 008°24'8 7.6
2015-Nov-10 10:33N 53°34' E 008°33'3 2.6
2015-Nov-10 09:33N 53°32' E 008°35'1 0.9
2015-Nov-10 08:31N 53°31' E 008°35'0 0.0
2015-Nov-10 07:31N 53°31' E 008°35'0 0.0
2015-Nov-10 06:31N 53°31' E 008°35'0 0.0
2015-Nov-10 05:25N 53°31' E 008°35'0 0.0
2015-Nov-10 04:31N 53°31' E 008°35'0 0.0
2015-Nov-10 03:31N 53°31' E 008°35'0 0.0
2015-Nov-10 02:31N 53°31' E 008°35'0 0.0
2015-Nov-10 01:31N 53°31' E 008°35'0 0.0
2015-Nov-09 23:28N 53°31' E 008°35'0 0.0
2015-Nov-09 22:28N 53°31' E 008°35'0 0.0
2015-Nov-09 21:31N 53°31' E 008°35'0 0.0
2015-Nov-09 20:25N 53°31' E 008°35'0 0.0
2015-Nov-09 19:31N 53°31' E 008°35'0 0.0
2015-Nov-09 18:31N 53°31' E 008°35'0 0.0
2015-Nov-09 17:22N 53°31' E 008°35'0 0.0
2015-Nov-09 16:31N 53°31' E 008°35'0 0.0
2015-Nov-09 15:31N 53°31' E 008°35'0 0.0
2015-Nov-09 14:31N 53°31' E 008°35'0 0.0
2015-Nov-09 13:31N 53°31' E 008°35'0 0.0
2015-Nov-09 12:31N 53°31' E 008°35'0 0.0
2015-Nov-09 11:31N 53°31' E 008°35'0 0.0
2015-Nov-09 10:28N 53°31' E 008°35'0 0.0
2015-Nov-09 09:28N 53°31' E 008°35'0 0.0
2015-Nov-09 08:31N 53°31' E 008°35'0 0.0
2015-Nov-09 07:25N 53°31' E 008°35'0 0.0
2015-Nov-09 06:28N 53°31' E 008°35'0 0.0
2015-Nov-09 05:25N 53°31' E 008°35'0 0.0
2015-Nov-09 04:22N 53°31' E 008°35'0 0.0
2015-Nov-09 03:25N 53°31' E 008°35'0 0.0
2015-Nov-09 02:31N 53°31' E 008°35'0 0.0
2015-Nov-09 01:31N 53°31' E 008°35'0 0.0
2015-Nov-09 00:19N 53°31' E 008°35'0 0.0
2015-Nov-08 23:28N 53°31' E 008°35'0 0.0
2015-Nov-08 22:31N 53°31' E 008°35'0 0.0
2015-Nov-08 21:31N 53°31' E 008°35'0 0.0
2015-Nov-08 20:28N 53°31' E 008°35'0 0.0
2015-Nov-08 19:31N 53°31' E 008°35'0 0.0
2015-Nov-08 18:31N 53°31' E 008°35'0 0.0
2015-Nov-08 17:31N 53°31' E 008°35'0 0.0
2015-Nov-08 16:28N 53°31' E 008°35'0 0.0
2015-Nov-08 15:31N 53°31' E 008°35'0 0.0
2015-Nov-08 14:31N 53°31' E 008°35'0 0.0
2015-Nov-08 13:31N 53°31' E 008°35'0 0.0
2015-Nov-08 12:31N 53°31' E 008°35'0 0.0
2015-Nov-08 11:32N 53°31' E 008°35'0 0.0
2015-Nov-08 10:32N 53°31' E 008°35'0 0.0
2015-Nov-08 09:32N 53°31' E 008°35'0 0.0
2015-Nov-08 08:29N 53°31' E 008°35'0 0.0
2015-Nov-08 07:31N 53°31' E 008°35'0 0.0
2015-Nov-08 06:31N 53°31' E 008°35'0 0.0
2015-Nov-08 05:29N 53°31' E 008°35'0 0.0
2015-Nov-08 04:33N 53°31' E 008°35'0 0.0
2015-Nov-08 03:33N 53°31' E 008°35'0 0.0
2015-Nov-08 02:33N 53°31' E 008°35'0 0.0
2015-Nov-08 01:30N 53°31' E 008°35'0 0.0
2015-Nov-08 00:33N 53°31' E 008°35'0 0.0
2015-Nov-07 23:30N 53°31' E 008°35'0 0.0
2015-Nov-07 22:30N 53°31' E 008°35'0 0.0
2015-Nov-07 21:32N 53°31' E 008°35'0 0.0
2015-Nov-07 20:29N 53°31' E 008°35'0 0.0
2015-Nov-07 19:29N 53°31' E 008°35'0 0.0
2015-Nov-07 18:24N 53°31' E 008°35'0 0.0
2015-Nov-07 17:29N 53°31' E 008°35'0 0.0
2015-Nov-07 16:33N 53°31' E 008°35'0 0.0
2015-Nov-07 15:33N 53°31' E 008°35'0 0.0
2015-Nov-07 14:33N 53°31' E 008°35'0 0.0
2015-Nov-07 13:33N 53°31' E 008°35'0 0.0
2015-Nov-07 12:33N 53°31' E 008°35'0 0.0
2015-Nov-07 11:25N 53°31' E 008°35'0 0.0
2015-Nov-07 10:32N 53°31' E 008°35'0 0.0
2015-Nov-07 09:32N 53°31' E 008°35'0 0.0
2015-Nov-07 08:32N 53°31' E 008°35'0 0.0
2015-Nov-07 07:32N 53°31' E 008°35'0 0.0
2015-Nov-07 06:32N 53°31' E 008°35'0 0.0
2015-Nov-07 05:31N 53°31' E 008°35'0 0.0
2015-Nov-07 04:31N 53°31' E 008°35'0 0.0
2015-Nov-07 03:31N 53°31' E 008°35'0 0.0
2015-Nov-07 02:31N 53°31' E 008°35'0 0.0
2015-Nov-07 01:33N 53°31' E 008°35'0 0.0
2015-Nov-07 00:33N 53°31' E 008°35'0 0.0
2015-Nov-06 23:33N 53°31' E 008°35'0 0.0
2015-Nov-06 22:30N 53°31' E 008°35'0 0.0
2015-Nov-06 21:33N 53°31' E 008°35'0 0.0
2015-Nov-06 20:33N 53°31' E 008°35'0 0.0
2015-Nov-06 19:32N 53°31' E 008°35'0 0.0
2015-Nov-06 18:32N 53°31' E 008°35'0 0.0
2015-Nov-06 17:32N 53°31' E 008°35'0 0.0
2015-Nov-06 16:32N 53°31' E 008°35'0 0.0
2015-Nov-06 15:32N 53°31' E 008°35'0 0.0
2015-Nov-06 14:31N 53°31' E 008°35'0 0.0
2015-Nov-06 13:34N 53°31' E 008°35'0 0.0
2015-Nov-06 12:31N 53°31' E 008°35'0 0.0
2015-Nov-06 11:33N 53°31' E 008°35'0 0.0
2015-Nov-06 10:31N 53°31' E 008°35'0 0.0
2015-Nov-06 09:33N 53°31' E 008°35'0 0.0
2015-Nov-06 08:30N 53°31' E 008°35'0 0.0
2015-Nov-06 07:30N 53°31' E 008°35'0 0.0
2015-Nov-06 06:27N 53°31' E 008°35'0 0.0
2015-Nov-06 05:32N 53°31' E 008°35'0 0.0
2015-Nov-06 04:32N 53°31' E 008°35'  

Dump ship's entire track history